PWSweather.com
Personal Weather Stations
Station Observations
SHAHALMS1
Eftra, Falkenberg, HA

EftraFalkenberg, HA

Lat: 56.85, Lon: 12.65

Elevation: 140

Station Type:

http://hem.passagen.se/risarp101

High Low Average
Temperature 67.5°F19.7°C 44.1°F6.7°C 56.4°F13.6°C
Dew Point 41.8°F5.4°C 20.4°F-6.4°C 29.5°F-1.4°C
Winds 25.2 mph 40.6 kmh 0.3 mph 0.5 kmh 12.0 mph E19.3 kmh E
Wind Gusts 54.0 mph86.9 kmh 5.4 mph8.7 kmh 26.0 mph41.8 kmh
Humidity 72% 19% 40%
Pressure 30.21 in1023.0 mb 29.98 in1015.2 mb -
Precipitation 0.00 in0.0 mm - -
Hour Temp Dew Point Humidity Winds Wind Gusts Pressure Precip Precip Rate Daily Precip Total
12:00 AM 47.7°F8.7°C 33.2°F0.7°C 57% 7.7 mph E12.4 kmh E 14.0 mph22.5 kmh 30.18 in1022.0 mb 0.00 in0.0 mm 0.00 in0.0 mm 0.00 in0.0 mm
12:15 AM 47.5°F8.6°C 33.4°F0.8°C 58% 6.4 mph E10.3 kmh E 13.6 mph21.9 kmh 30.18 in1022.0 mb 0.00 in0.0 mm 0.00 in0.0 mm 0.00 in0.0 mm
12:30 AM 47.3°F8.5°C 33.7°F0.9°C 59% 5.0 mph E8.0 kmh E 10.7 mph17.2 kmh 30.18 in1022.0 mb 0.00 in0.0 mm 0.00 in0.0 mm 0.00 in0.0 mm
12:45 AM 46.9°F8.3°C 33.3°F0.7°C 59% 3.8 mph ENE6.1 kmh ENE 10.0 mph16.1 kmh 30.18 in1022.0 mb 0.00 in0.0 mm 0.00 in0.0 mm 0.00 in0.0 mm
01:00 AM 46.8°F8.2°C 33.6°F0.9°C 60% 5.5 mph ENE8.9 kmh ENE 12.2 mph19.6 kmh 30.18 in1022.0 mb 0.00 in0.0 mm 0.00 in0.0 mm 0.00 in0.0 mm
01:15 AM 46.6°F8.1°C 33.8°F1.0°C 61% 2.0 mph ENE3.2 kmh ENE 8.9 mph14.3 kmh 30.18 in1022.0 mb 0.00 in0.0 mm 0.00 in0.0 mm 0.00 in0.0 mm
01:30 AM 46.2°F7.9°C 33.5°F0.8°C 61% 3.0 mph E4.8 kmh E 9.7 mph15.6 kmh 30.18 in1022.0 mb 0.00 in0.0 mm 0.00 in0.0 mm 0.00 in0.0 mm
01:45 AM 45.9°F7.7°C 33.6°F0.9°C 62% 1.4 mph E2.3 kmh E 8.6 mph13.8 kmh 30.18 in1022.0 mb 0.00 in0.0 mm 0.00 in0.0 mm 0.00 in0.0 mm
02:00 AM 45.7°F7.6°C 33.8°F1.0°C 63% 2.5 mph NE4.0 kmh NE 10.4 mph16.7 kmh 30.15 in1021.0 mb 0.00 in0.0 mm 0.00 in0.0 mm 0.00 in0.0 mm
02:15 AM 45.7°F7.6°C 34.2°F1.2°C 64% 1.1 mph NE1.8 kmh NE 5.7 mph9.2 kmh 30.18 in1022.0 mb 0.00 in0.0 mm 0.00 in0.0 mm 0.00 in0.0 mm
02:30 AM 45.5°F7.5°C 34.4°F1.3°C 65% 2.4 mph NE3.9 kmh NE 5.7 mph9.2 kmh 30.18 in1022.0 mb 0.00 in0.0 mm 0.00 in0.0 mm 0.00 in0.0 mm
02:45 AM 45.3°F7.4°C 34.2°F1.2°C 65% 2.2 mph ENE3.5 kmh ENE 8.9 mph14.3 kmh 30.18 in1022.0 mb 0.00 in0.0 mm 0.00 in0.0 mm 0.00 in0.0 mm
03:00 AM 45.1°F7.3°C 34.5°F1.4°C 66% 3.5 mph ENE5.6 kmh ENE 11.5 mph18.5 kmh 30.18 in1022.0 mb 0.00 in0.0 mm 0.00 in0.0 mm 0.00 in0.0 mm
03:15 AM 45.1°F7.3°C 34.8°F1.6°C 67% 2.5 mph NE4.0 kmh NE 6.1 mph9.8 kmh 30.18 in1022.0 mb 0.00 in0.0 mm 0.00 in0.0 mm 0.00 in0.0 mm
03:30 AM 45.0°F7.2°C 34.7°F1.5°C 67% 0.9 mph NE1.4 kmh NE 6.1 mph9.8 kmh 30.18 in1022.0 mb 0.00 in0.0 mm 0.00 in0.0 mm 0.00 in0.0 mm
03:45 AM 45.0°F7.2°C 34.7°F1.5°C 67% 2.5 mph NE4.0 kmh NE 11.5 mph18.5 kmh 30.18 in1022.0 mb 0.00 in0.0 mm 0.00 in0.0 mm 0.00 in0.0 mm
04:00 AM 45.0°F7.2°C 35.0°F1.7°C 68% 1.8 mph ENE2.9 kmh ENE 11.8 mph19.0 kmh 30.18 in1022.0 mb 0.00 in0.0 mm 0.00 in0.0 mm 0.00 in0.0 mm
04:15 AM 44.8°F7.1°C 35.2°F1.8°C 69% 1.6 mph NE2.6 kmh NE 6.1 mph9.8 kmh 30.15 in1021.0 mb 0.00 in0.0 mm 0.00 in0.0 mm 0.00 in0.0 mm
04:30 AM 44.2°F6.8°C 35.1°F1.7°C 70% 4.2 mph N6.8 kmh N 8.6 mph13.8 kmh 30.18 in1022.0 mb 0.00 in0.0 mm 0.00 in0.0 mm 0.00 in0.0 mm
04:45 AM 44.1°F6.7°C 35.3°F1.8°C 71% 3.3 mph N5.3 kmh N 8.9 mph14.3 kmh 30.18 in1022.0 mb 0.00 in0.0 mm 0.00 in0.0 mm 0.00 in0.0 mm
05:00 AM 44.1°F6.7°C 35.6°F2.0°C 72% 0.3 mph NE0.5 kmh NE 5.4 mph8.7 kmh 30.18 in1022.0 mb 0.00 in0.0 mm 0.00 in0.0 mm 0.00 in0.0 mm
05:15 AM 44.2°F6.8°C 35.8°F2.1°C 72% 2.2 mph NE3.5 kmh NE 9.3 mph15.0 kmh 30.18 in1022.0 mb 0.00 in0.0 mm 0.00 in0.0 mm 0.00 in0.0 mm
05:30 AM 44.8°F7.1°C 35.9°F2.2°C 71% 1.2 mph ENE1.9 kmh ENE 7.2 mph11.6 kmh 30.18 in1022.0 mb 0.00 in0.0 mm 0.00 in0.0 mm 0.00 in0.0 mm
05:45 AM 45.1°F7.3°C 36.6°F2.6°C 72% 1.7 mph ENE2.7 kmh ENE 9.3 mph15.0 kmh 30.18 in1022.0 mb 0.00 in0.0 mm 0.00 in0.0 mm 0.00 in0.0 mm
06:00 AM 45.9°F7.7°C 37.0°F2.8°C 71% 5.3 mph ENE8.5 kmh ENE 12.5 mph20.1 kmh 30.18 in1022.0 mb 0.00 in0.0 mm 0.00 in0.0 mm 0.00 in0.0 mm
06:15 AM 46.8°F8.2°C 37.9°F3.3°C 71% 6.9 mph E11.1 kmh E 12.2 mph19.6 kmh 30.18 in1022.0 mb 0.00 in0.0 mm 0.00 in0.0 mm 0.00 in0.0 mm
06:30 AM 47.7°F8.7°C 38.4°F3.6°C 70% 7.5 mph E12.1 kmh E 17.9 mph28.8 kmh 30.18 in1022.0 mb 0.00 in0.0 mm 0.00 in0.0 mm 0.00 in0.0 mm
06:45 AM 48.7°F9.3°C 39.0°F3.9°C 69% 9.3 mph E15.0 kmh E 16.1 mph25.9 kmh 30.18 in1022.0 mb 0.00 in0.0 mm 0.00 in0.0 mm 0.00 in0.0 mm
07:00 AM 49.8°F9.9°C 39.7°F4.3°C 68% 10.0 mph E16.1 kmh E 17.5 mph28.2 kmh 30.18 in1022.0 mb 0.00 in0.0 mm 0.00 in0.0 mm 0.00 in0.0 mm
07:15 AM 51.3°F10.7°C 40.7°F4.8°C 67% 10.2 mph E16.4 kmh E 17.5 mph28.2 kmh 30.21 in1023.0 mb 0.00 in0.0 mm 0.00 in0.0 mm 0.00 in0.0 mm
07:30 AM 52.7°F11.5°C 41.3°F5.2°C 65% 9.3 mph E15.0 kmh E 16.5 mph26.6 kmh 30.18 in1022.0 mb 0.00 in0.0 mm 0.00 in0.0 mm 0.00 in0.0 mm
07:45 AM 54.1°F12.3°C 41.8°F5.4°C 63% 9.8 mph E15.8 kmh E 19.3 mph31.1 kmh 30.18 in1022.0 mb 0.00 in0.0 mm 0.00 in0.0 mm 0.00 in0.0 mm
08:00 AM 55.2°F12.9°C 41.1°F5.1°C 59% 13.7 mph E22.0 kmh E 24.7 mph39.8 kmh 30.18 in1022.0 mb 0.00 in0.0 mm 0.00 in0.0 mm 0.00 in0.0 mm
08:15 AM 56.3°F13.5°C 40.8°F4.9°C 56% 11.9 mph E19.2 kmh E 19.7 mph31.7 kmh 30.15 in1021.0 mb 0.00 in0.0 mm 0.00 in0.0 mm 0.00 in0.0 mm
08:30 AM 57.4°F14.1°C 40.9°F4.9°C 54% 14.2 mph E22.9 kmh E 25.1 mph40.4 kmh 30.15 in1021.0 mb 0.00 in0.0 mm 0.00 in0.0 mm 0.00 in0.0 mm
08:45 AM 58.3°F14.6°C 40.7°F4.8°C 52% 13.3 mph ESE21.4 kmh ESE 27.2 mph43.8 kmh 30.15 in1021.0 mb 0.00 in0.0 mm 0.00 in0.0 mm 0.00 in0.0 mm
09:00 AM 59.2°F15.1°C 40.0°F4.4°C 49% 15.2 mph ESE24.5 kmh ESE 30.8 mph49.6 kmh 30.18 in1022.0 mb 0.00 in0.0 mm 0.00 in0.0 mm 0.00 in0.0 mm
09:15 AM 59.9°F15.5°C 38.5°F3.6°C 45% 15.0 mph ESE24.1 kmh ESE 29.7 mph47.8 kmh 30.18 in1022.0 mb 0.00 in0.0 mm 0.00 in0.0 mm 0.00 in0.0 mm
09:30 AM 60.6°F15.9°C 35.5°F1.9°C 39% 19.0 mph ESE30.6 kmh ESE 43.3 mph69.7 kmh 30.18 in1022.0 mb 0.00 in0.0 mm 0.00 in0.0 mm 0.00 in0.0 mm
09:45 AM 61.3°F16.3°C 33.4°F0.8°C 35% 20.2 mph ESE32.5 kmh ESE 44.4 mph71.5 kmh 30.18 in1022.0 mb 0.00 in0.0 mm 0.00 in0.0 mm 0.00 in0.0 mm
10:00 AM 61.9°F16.6°C 34.6°F1.4°C 36% 16.9 mph E27.2 kmh E 36.9 mph59.4 kmh 30.18 in1022.0 mb 0.00 in0.0 mm 0.00 in0.0 mm 0.00 in0.0 mm
10:15 AM 62.6°F17.0°C 32.3°F0.2°C 32% 20.8 mph E33.5 kmh E 38.3 mph61.6 kmh 30.18 in1022.0 mb 0.00 in0.0 mm 0.00 in0.0 mm 0.00 in0.0 mm
10:30 AM 63.1°F17.3°C 32.8°F0.4°C 32% 19.4 mph SE31.2 kmh SE 41.9 mph67.4 kmh 30.15 in1021.0 mb 0.00 in0.0 mm 0.00 in0.0 mm 0.00 in0.0 mm
10:45 AM 63.7°F17.6°C 32.5°F0.3°C 31% 18.4 mph ESE29.6 kmh ESE 41.5 mph66.8 kmh 30.15 in1021.0 mb 0.00 in0.0 mm 0.00 in0.0 mm 0.00 in0.0 mm
11:00 AM 64.0°F17.8°C 32.0°F0.0°C 30% 21.5 mph ESE34.6 kmh ESE 45.5 mph73.2 kmh 30.15 in1021.0 mb 0.00 in0.0 mm 0.00 in0.0 mm 0.00 in0.0 mm
11:15 AM 64.8°F18.2°C 31.7°F-0.2°C 29% 19.4 mph E31.2 kmh E 46.5 mph74.8 kmh 30.15 in1021.0 mb 0.00 in0.0 mm 0.00 in0.0 mm 0.00 in0.0 mm
11:30 AM 64.9°F18.3°C 31.0°F-0.6°C 28% 20.6 mph ESE33.2 kmh ESE 42.2 mph67.9 kmh 30.15 in1021.0 mb 0.00 in0.0 mm 0.00 in0.0 mm 0.00 in0.0 mm
11:45 AM 65.3°F18.5°C 30.4°F-0.9°C 27% 20.3 mph E32.7 kmh E 41.9 mph67.4 kmh 30.15 in1021.0 mb 0.00 in0.0 mm 0.00 in0.0 mm 0.00 in0.0 mm
12:00 PM 65.3°F18.5°C 29.5°F-1.4°C 26% 19.9 mph E32.0 kmh E 38.7 mph62.3 kmh 30.12 in1020.0 mb 0.00 in0.0 mm 0.00 in0.0 mm 0.00 in0.0 mm
12:15 PM 65.5°F18.6°C 28.7°F-1.8°C 25% 25.0 mph E40.2 kmh E 43.7 mph70.3 kmh 30.15 in1021.0 mb 0.00 in0.0 mm 0.00 in0.0 mm 0.00 in0.0 mm
12:30 PM 65.7°F18.7°C 27.9°F-2.3°C 24% 25.2 mph E40.6 kmh E 44.4 mph71.5 kmh 30.12 in1020.0 mb 0.00 in0.0 mm 0.00 in0.0 mm 0.00 in0.0 mm
12:45 PM 65.8°F18.8°C 27.0°F-2.8°C 23% 23.9 mph E38.5 kmh E 54.0 mph86.9 kmh 30.12 in1020.0 mb 0.00 in0.0 mm 0.00 in0.0 mm 0.00 in0.0 mm
01:00 PM 66.2°F19.0°C 27.3°F-2.6°C 23% 19.5 mph ESE31.4 kmh ESE 40.1 mph64.5 kmh 30.12 in1020.0 mb 0.00 in0.0 mm 0.00 in0.0 mm 0.00 in0.0 mm
01:15 PM 66.4°F19.1°C 25.2°F-3.8°C 21% 21.5 mph ESE34.6 kmh ESE 42.6 mph68.6 kmh 30.12 in1020.0 mb 0.00 in0.0 mm 0.00 in0.0 mm 0.00 in0.0 mm
01:30 PM 66.9°F19.4°C 25.7°F-3.5°C 21% 19.3 mph ESE31.1 kmh ESE 44.0 mph70.8 kmh 30.12 in1020.0 mb 0.00 in0.0 mm 0.00 in0.0 mm 0.00 in0.0 mm
01:45 PM 66.7°F19.3°C 24.3°F-4.3°C 20% 23.4 mph E37.7 kmh E 48.0 mph77.2 kmh 30.12 in1020.0 mb 0.00 in0.0 mm 0.00 in0.0 mm 0.00 in0.0 mm
02:00 PM 67.1°F19.5°C 24.6°F-4.1°C 20% 20.1 mph E32.3 kmh E 35.8 mph57.6 kmh 30.09 in1019.0 mb 0.00 in0.0 mm 0.00 in0.0 mm 0.00 in0.0 mm
02:15 PM 67.1°F19.5°C 24.6°F-4.1°C 20% 21.0 mph E33.8 kmh E 45.5 mph73.2 kmh 30.09 in1019.0 mb 0.00 in0.0 mm 0.00 in0.0 mm 0.00 in0.0 mm
02:30 PM 67.5°F19.7°C 24.9°F-3.9°C 20% 18.6 mph E29.9 kmh E 40.4 mph65.0 kmh 30.07 in1018.3 mb 0.00 in0.0 mm 0.00 in0.0 mm 0.00 in0.0 mm
02:45 PM 67.5°F19.7°C 24.9°F-3.9°C 20% 21.3 mph E34.3 kmh E 38.7 mph62.3 kmh 30.07 in1018.3 mb 0.00 in0.0 mm 0.00 in0.0 mm 0.00 in0.0 mm
03:00 PM 67.3°F19.6°C 23.6°F-4.7°C 19% 21.0 mph E33.8 kmh E 42.2 mph67.9 kmh 30.07 in1018.3 mb 0.00 in0.0 mm 0.00 in0.0 mm 0.00 in0.0 mm
03:15 PM 67.1°F19.5°C 23.4°F-4.8°C 19% 22.1 mph E35.6 kmh E 44.0 mph70.8 kmh 30.07 in1018.3 mb 0.00 in0.0 mm 0.00 in0.0 mm 0.00 in0.0 mm
03:30 PM 67.5°F19.7°C 23.7°F-4.6°C 19% 18.3 mph E29.5 kmh E 35.8 mph57.6 kmh 30.07 in1018.3 mb 0.00 in0.0 mm 0.00 in0.0 mm 0.00 in0.0 mm
03:45 PM 67.3°F19.6°C 23.6°F-4.7°C 19% 19.0 mph E30.6 kmh E 41.2 mph66.3 kmh 30.04 in1017.3 mb 0.00 in0.0 mm 0.00 in0.0 mm 0.00 in0.0 mm
04:00 PM 67.1°F19.5°C 23.4°F-4.8°C 19% 18.8 mph E30.3 kmh E 40.1 mph64.5 kmh 30.07 in1018.3 mb 0.00 in0.0 mm 0.00 in0.0 mm 0.00 in0.0 mm
04:15 PM 67.3°F19.6°C 23.6°F-4.7°C 19% 15.0 mph E24.1 kmh E 30.4 mph48.9 kmh 30.07 in1018.3 mb 0.00 in0.0 mm 0.00 in0.0 mm 0.00 in0.0 mm
04:30 PM 66.7°F19.3°C 23.1°F-4.9°C 19% 18.7 mph ESE30.1 kmh ESE 41.2 mph66.3 kmh 30.07 in1018.3 mb 0.00 in0.0 mm 0.00 in0.0 mm 0.00 in0.0 mm
04:45 PM 66.4°F19.1°C 22.8°F-5.1°C 19% 15.5 mph E24.9 kmh E 31.5 mph50.7 kmh 30.09 in1019.0 mb 0.00 in0.0 mm 0.00 in0.0 mm 0.00 in0.0 mm
05:00 PM 66.0°F18.9°C 23.8°F-4.6°C 20% 15.7 mph E25.3 kmh E 36.9 mph59.4 kmh 30.07 in1018.3 mb 0.00 in0.0 mm 0.00 in0.0 mm 0.00 in0.0 mm
05:15 PM 65.5°F18.6°C 23.3°F-4.8°C 20% 19.0 mph E30.6 kmh E 35.8 mph57.6 kmh 30.07 in1018.3 mb 0.00 in0.0 mm 0.00 in0.0 mm 0.00 in0.0 mm
05:30 PM 64.8°F18.2°C 22.7°F-5.2°C 20% 20.4 mph ESE32.8 kmh ESE 39.0 mph62.8 kmh 30.07 in1018.3 mb 0.00 in0.0 mm 0.00 in0.0 mm 0.00 in0.0 mm
05:45 PM 63.9°F17.7°C 22.0°F-5.6°C 20% 20.1 mph E32.3 kmh E 36.5 mph58.7 kmh 30.07 in1018.3 mb 0.00 in0.0 mm 0.00 in0.0 mm 0.00 in0.0 mm
06:00 PM 62.8°F17.1°C 21.1°F-6.1°C 20% 24.0 mph E38.6 kmh E 47.2 mph76.0 kmh 30.07 in1018.3 mb 0.00 in0.0 mm 0.00 in0.0 mm 0.00 in0.0 mm
06:15 PM 62.1°F16.7°C 21.6°F-5.8°C 21% 11.7 mph E18.8 kmh E 24.7 mph39.8 kmh 30.07 in1018.3 mb 0.00 in0.0 mm 0.00 in0.0 mm 0.00 in0.0 mm
06:30 PM 61.2°F16.2°C 22.0°F-5.6°C 22% 13.6 mph E21.9 kmh E 24.7 mph39.8 kmh 30.07 in1018.3 mb 0.00 in0.0 mm 0.00 in0.0 mm 0.00 in0.0 mm
06:45 PM 60.6°F15.9°C 21.5°F-5.8°C 22% 12.4 mph E20.0 kmh E 24.3 mph39.1 kmh 30.07 in1018.3 mb 0.00 in0.0 mm 0.00 in0.0 mm 0.00 in0.0 mm
07:01 PM 59.7°F15.4°C 20.8°F-6.2°C 22% 12.3 mph E19.8 kmh E 28.3 mph45.5 kmh 30.07 in1018.3 mb 0.00 in0.0 mm 0.00 in0.0 mm 0.00 in0.0 mm
07:15 PM 58.8°F14.9°C 21.1°F-6.1°C 23% 10.6 mph E17.1 kmh E 17.5 mph28.2 kmh 30.07 in1018.3 mb 0.00 in0.0 mm 0.00 in0.0 mm 0.00 in0.0 mm
07:30 PM 58.1°F14.5°C 20.4°F-6.4°C 23% 11.9 mph E19.2 kmh E 21.8 mph35.1 kmh 30.04 in1017.3 mb 0.00 in0.0 mm 0.00 in0.0 mm 0.00 in0.0 mm
07:45 PM 57.4°F14.1°C 20.8°F-6.2°C 24% 9.5 mph E15.3 kmh E 20.0 mph32.2 kmh 30.04 in1017.3 mb 0.00 in0.0 mm 0.00 in0.0 mm 0.00 in0.0 mm
08:00 PM 57.0°F13.9°C 20.5°F-6.4°C 24% 10.1 mph E16.3 kmh E 22.5 mph36.2 kmh 30.04 in1017.3 mb 0.00 in0.0 mm 0.00 in0.0 mm 0.00 in0.0 mm
08:15 PM 56.3°F13.5°C 20.9°F-6.2°C 25% 11.1 mph E17.9 kmh E 23.6 mph38.0 kmh 30.04 in1017.3 mb 0.00 in0.0 mm 0.00 in0.0 mm 0.00 in0.0 mm
08:30 PM 55.9°F13.3°C 20.6°F-6.3°C 25% 9.5 mph E15.3 kmh E 19.3 mph31.1 kmh 30.04 in1017.3 mb 0.00 in0.0 mm 0.00 in0.0 mm 0.00 in0.0 mm
08:45 PM 55.6°F13.1°C 21.2°F-6.0°C 26% 9.1 mph E14.6 kmh E 19.7 mph31.7 kmh 30.04 in1017.3 mb 0.00 in0.0 mm 0.00 in0.0 mm 0.00 in0.0 mm
09:00 PM 55.2°F12.9°C 21.8°F-5.7°C 27% 9.7 mph E15.6 kmh E 20.8 mph33.5 kmh 30.04 in1017.3 mb 0.00 in0.0 mm 0.00 in0.0 mm 0.00 in0.0 mm
09:15 PM 55.0°F12.8°C 21.6°F-5.8°C 27% 9.2 mph E14.8 kmh E 18.3 mph29.5 kmh 30.01 in1016.3 mb 0.00 in0.0 mm 0.00 in0.0 mm 0.00 in0.0 mm
09:30 PM 54.7°F12.6°C 22.2°F-5.4°C 28% 9.6 mph E15.4 kmh E 21.1 mph34.0 kmh 30.01 in1016.3 mb 0.00 in0.0 mm 0.00 in0.0 mm 0.00 in0.0 mm
09:45 PM 54.5°F12.5°C 22.0°F-5.6°C 28% 10.6 mph E17.1 kmh E 19.7 mph31.7 kmh 30.01 in1016.3 mb 0.00 in0.0 mm 0.00 in0.0 mm 0.00 in0.0 mm
10:00 PM 54.5°F12.5°C 22.9°F-5.1°C 29% 11.9 mph E19.2 kmh E 28.6 mph46.0 kmh 30.01 in1016.3 mb 0.00 in0.0 mm 0.00 in0.0 mm 0.00 in0.0 mm
10:15 PM 54.3°F12.4°C 22.7°F-5.2°C 29% 11.6 mph E18.7 kmh E 23.3 mph37.5 kmh 30.01 in1016.3 mb 0.00 in0.0 mm 0.00 in0.0 mm 0.00 in0.0 mm
10:30 PM 54.1°F12.3°C 23.3°F-4.8°C 30% 13.6 mph E21.9 kmh E 31.9 mph51.3 kmh 29.98 in1015.2 mb 0.00 in0.0 mm 0.00 in0.0 mm 0.00 in0.0 mm
10:45 PM 54.0°F12.2°C 23.2°F-4.9°C 30% 11.7 mph E18.8 kmh E 22.9 mph36.9 kmh 29.98 in1015.2 mb 0.00 in0.0 mm 0.00 in0.0 mm 0.00 in0.0 mm
11:00 PM 53.8°F12.1°C 23.0°F-5.0°C 30% 12.6 mph E20.3 kmh E 23.6 mph38.0 kmh 30.01 in1016.3 mb 0.00 in0.0 mm 0.00 in0.0 mm 0.00 in0.0 mm
11:15 PM 53.4°F11.9°C 23.5°F-4.7°C 31% 11.5 mph E18.5 kmh E 20.4 mph32.8 kmh 30.01 in1016.3 mb 0.00 in0.0 mm 0.00 in0.0 mm 0.00 in0.0 mm
11:30 PM 53.2°F11.8°C 23.3°F-4.8°C 31% 12.7 mph E20.4 kmh E 28.3 mph45.5 kmh 30.01 in1016.3 mb 0.00 in0.0 mm 0.00 in0.0 mm 0.00 in0.0 mm
11:45 PM 52.9°F11.6°C 23.0°F-5.0°C 31% 11.5 mph E18.5 kmh E 20.8 mph33.5 kmh 30.01 in1016.3 mb 0.00 in0.0 mm 0.00 in0.0 mm 0.00 in0.0 mm